sensor_id;sensor_type;location;lat;lon;timestamp;P1;durP1;ratioP1;P2;durP2;ratioP2
19225;SDS011;9747;48.536;12.522;2022-12-13T00:01:30;7.90;;;7.10;;
19225;SDS011;9747;48.536;12.522;2022-12-13T00:04:00;7.93;;;7.00;;
19225;SDS011;9747;48.536;12.522;2022-12-13T00:06:29;7.65;;;6.95;;
19225;SDS011;9747;48.536;12.522;2022-12-13T00:08:57;7.85;;;7.05;;
19225;SDS011;9747;48.536;12.522;2022-12-13T00:11:26;7.57;;;6.88;;
19225;SDS011;9747;48.536;12.522;2022-12-13T00:13:54;8.02;;;7.22;;
19225;SDS011;9747;48.536;12.522;2022-12-13T00:16:22;7.40;;;6.70;;
19225;SDS011;9747;48.536;12.522;2022-12-13T00:18:52;7.05;;;6.38;;
19225;SDS011;9747;48.536;12.522;2022-12-13T00:21:21;7.78;;;6.97;;
19225;SDS011;9747;48.536;12.522;2022-12-13T00:23:51;7.05;;;6.35;;
19225;SDS011;9747;48.536;12.522;2022-12-13T00:26:19;7.38;;;6.68;;
19225;SDS011;9747;48.536;12.522;2022-12-13T00:28:49;7.18;;;6.57;;
19225;SDS011;9747;48.536;12.522;2022-12-13T00:31:18;7.15;;;6.45;;
19225;SDS011;9747;48.536;12.522;2022-12-13T00:33:47;7.20;;;6.55;;
19225;SDS011;9747;48.536;12.522;2022-12-13T00:36:15;7.13;;;6.53;;
19225;SDS011;9747;48.536;12.522;2022-12-13T00:38:43;6.75;;;6.15;;
19225;SDS011;9747;48.536;12.522;2022-12-13T00:41:12;8.85;;;7.15;;
19225;SDS011;9747;48.536;12.522;2022-12-13T00:43:41;8.35;;;6.88;;
19225;SDS011;9747;48.536;12.522;2022-12-13T00:46:12;8.05;;;7.28;;
19225;SDS011;9747;48.536;12.522;2022-12-13T00:48:41;7.45;;;6.75;;
19225;SDS011;9747;48.536;12.522;2022-12-13T00:51:10;8.32;;;7.47;;
19225;SDS011;9747;48.536;12.522;2022-12-13T00:53:38;9.05;;;7.38;;
19225;SDS011;9747;48.536;12.522;2022-12-13T00:56:09;9.15;;;7.55;;
19225;SDS011;9747;48.536;12.522;2022-12-13T00:58:37;10.70;;;8.13;;
19225;SDS011;9747;48.536;12.522;2022-12-13T01:01:05;9.68;;;8.55;;
19225;SDS011;9747;48.536;12.522;2022-12-13T01:03:35;9.80;;;8.30;;
19225;SDS011;9747;48.536;12.522;2022-12-13T01:06:07;10.05;;;7.93;;
19225;SDS011;9747;48.536;12.522;2022-12-13T01:08:36;10.23;;;8.60;;
19225;SDS011;9747;48.536;12.522;2022-12-13T01:11:03;9.43;;;8.15;;
19225;SDS011;9747;48.536;12.522;2022-12-13T01:13:32;9.00;;;7.43;;
19225;SDS011;9747;48.536;12.522;2022-12-13T01:16:00;8.40;;;7.60;;
19225;SDS011;9747;48.536;12.522;2022-12-13T01:18:29;9.27;;;7.70;;
19225;SDS011;9747;48.536;12.522;2022-12-13T01:21:00;8.75;;;7.85;;
19225;SDS011;9747;48.536;12.522;2022-12-13T01:23:30;9.50;;;8.00;;
19225;SDS011;9747;48.536;12.522;2022-12-13T01:26:00;9.68;;;8.05;;
19225;SDS011;9747;48.536;12.522;2022-12-13T01:28:29;8.10;;;7.20;;
19225;SDS011;9747;48.536;12.522;2022-12-13T01:30:58;8.57;;;7.43;;
19225;SDS011;9747;48.536;12.522;2022-12-13T01:33:27;8.45;;;7.50;;
19225;SDS011;9747;48.536;12.522;2022-12-13T01:35:55;8.63;;;7.72;;
19225;SDS011;9747;48.536;12.522;2022-12-13T01:38:27;8.50;;;7.70;;
19225;SDS011;9747;48.536;12.522;2022-12-13T01:40:55;8.63;;;7.50;;
19225;SDS011;9747;48.536;12.522;2022-12-13T01:43:23;9.90;;;8.00;;
19225;SDS011;9747;48.536;12.522;2022-12-13T01:45:51;8.45;;;7.65;;
19225;SDS011;9747;48.536;12.522;2022-12-13T01:48:19;9.27;;;7.78;;
19225;SDS011;9747;48.536;12.522;2022-12-13T01:50:51;9.10;;;8.05;;
19225;SDS011;9747;48.536;12.522;2022-12-13T01:53:23;8.85;;;7.95;;
19225;SDS011;9747;48.536;12.522;2022-12-13T01:55:55;9.20;;;8.20;;
19225;SDS011;9747;48.536;12.522;2022-12-13T01:58:26;9.07;;;8.00;;
19225;SDS011;9747;48.536;12.522;2022-12-13T02:00:54;9.52;;;7.97;;
19225;SDS011;9747;48.536;12.522;2022-12-13T02:03:23;9.40;;;8.40;;
19225;SDS011;9747;48.536;12.522;2022-12-13T02:05:51;8.88;;;7.97;;
19225;SDS011;9747;48.536;12.522;2022-12-13T02:08:22;9.27;;;8.30;;
19225;SDS011;9747;48.536;12.522;2022-12-13T02:10:50;9.07;;;7.97;;
19225;SDS011;9747;48.536;12.522;2022-12-13T02:13:18;9.65;;;8.65;;
19225;SDS011;9747;48.536;12.522;2022-12-13T02:15:46;8.95;;;8.05;;
19225;SDS011;9747;48.536;12.522;2022-12-13T02:18:30;9.02;;;8.10;;
19225;SDS011;9747;48.536;12.522;2022-12-13T02:21:16;9.23;;;8.30;;
19225;SDS011;9747;48.536;12.522;2022-12-13T02:27:12;8.73;;;7.82;;
19225;SDS011;9747;48.536;12.522;2022-12-13T02:33:03;8.73;;;7.72;;
19225;SDS011;9747;48.536;12.522;2022-12-13T02:35:48;8.57;;;7.78;;
19225;SDS011;9747;48.536;12.522;2022-12-13T02:38:23;8.63;;;7.38;;
19225;SDS011;9747;48.536;12.522;2022-12-13T02:40:56;8.05;;;7.25;;
19225;SDS011;9747;48.536;12.522;2022-12-13T02:43:30;8.63;;;7.82;;
19225;SDS011;9747;48.536;12.522;2022-12-13T02:46:04;8.05;;;7.25;;
19225;SDS011;9747;48.536;12.522;2022-12-13T02:48:33;8.15;;;7.13;;
19225;SDS011;9747;48.536;12.522;2022-12-13T02:51:04;7.93;;;7.20;;
19225;SDS011;9747;48.536;12.522;2022-12-13T02:53:34;7.57;;;6.88;;
19225;SDS011;9747;48.536;12.522;2022-12-13T02:56:03;7.72;;;7.00;;
19225;SDS011;9747;48.536;12.522;2022-12-13T02:58:32;8.02;;;6.93;;
19225;SDS011;9747;48.536;12.522;2022-12-13T03:01:04;8.48;;;7.55;;
19225;SDS011;9747;48.536;12.522;2022-12-13T03:03:50;8.32;;;7.50;;
19225;SDS011;9747;48.536;12.522;2022-12-13T03:06:28;7.53;;;6.82;;
19225;SDS011;9747;48.536;12.522;2022-12-13T03:09:08;9.25;;;8.25;;
19225;SDS011;9747;48.536;12.522;2022-12-13T03:11:57;9.10;;;8.10;;
19225;SDS011;9747;48.536;12.522;2022-12-13T03:14:55;10.23;;;8.50;;
19225;SDS011;9747;48.536;12.522;2022-12-13T03:17:28;9.68;;;8.68;;
19225;SDS011;9747;48.536;12.522;2022-12-13T03:19:58;9.70;;;8.43;;
19225;SDS011;9747;48.536;12.522;2022-12-13T03:22:27;10.60;;;8.60;;
19225;SDS011;9747;48.536;12.522;2022-12-13T03:24:54;9.82;;;8.75;;
19225;SDS011;9747;48.536;12.522;2022-12-13T03:27:22;10.05;;;8.70;;
19225;SDS011;9747;48.536;12.522;2022-12-13T03:29:49;12.13;;;9.50;;
19225;SDS011;9747;48.536;12.522;2022-12-13T03:32:17;11.68;;;9.60;;
19225;SDS011;9747;48.536;12.522;2022-12-13T03:34:45;11.57;;;9.63;;
19225;SDS011;9747;48.536;12.522;2022-12-13T03:37:13;10.70;;;9.30;;
19225;SDS011;9747;48.536;12.522;2022-12-13T03:39:41;12.55;;;9.95;;
19225;SDS011;9747;48.536;12.522;2022-12-13T03:42:08;11.23;;;9.73;;
19225;SDS011;9747;48.536;12.522;2022-12-13T03:44:36;13.02;;;9.90;;
19225;SDS011;9747;48.536;12.522;2022-12-13T03:47:03;13.30;;;10.10;;
19225;SDS011;9747;48.536;12.522;2022-12-13T03:49:31;11.45;;;9.52;;
19225;SDS011;9747;48.536;12.522;2022-12-13T03:52:00;13.68;;;10.60;;
19225;SDS011;9747;48.536;12.522;2022-12-13T03:54:27;13.85;;;9.98;;
19225;SDS011;9747;48.536;12.522;2022-12-13T03:56:55;14.70;;;10.57;;
19225;SDS011;9747;48.536;12.522;2022-12-13T03:59:24;11.88;;;9.90;;
19225;SDS011;9747;48.536;12.522;2022-12-13T04:01:51;13.18;;;10.40;;
19225;SDS011;9747;48.536;12.522;2022-12-13T04:04:19;11.85;;;10.20;;
19225;SDS011;9747;48.536;12.522;2022-12-13T04:06:46;13.27;;;10.23;;
19225;SDS011;9747;48.536;12.522;2022-12-13T04:09:15;13.63;;;10.50;;
19225;SDS011;9747;48.536;12.522;2022-12-13T04:11:42;12.57;;;10.18;;
19225;SDS011;9747;48.536;12.522;2022-12-13T04:14:27;12.55;;;9.80;;
19225;SDS011;9747;48.536;12.522;2022-12-13T04:16:55;12.00;;;9.70;;
19225;SDS011;9747;48.536;12.522;2022-12-13T04:19:22;12.32;;;9.60;;
19225;SDS011;9747;48.536;12.522;2022-12-13T04:21:49;12.45;;;9.75;;
19225;SDS011;9747;48.536;12.522;2022-12-13T04:24:19;11.82;;;9.15;;
19225;SDS011;9747;48.536;12.522;2022-12-13T04:26:47;11.23;;;9.30;;
19225;SDS011;9747;48.536;12.522;2022-12-13T04:29:14;12.60;;;9.80;;
19225;SDS011;9747;48.536;12.522;2022-12-13T04:31:42;12.40;;;9.38;;
19225;SDS011;9747;48.536;12.522;2022-12-13T04:34:09;12.90;;;9.18;;
19225;SDS011;9747;48.536;12.522;2022-12-13T04:36:37;12.20;;;9.27;;
19225;SDS011;9747;48.536;12.522;2022-12-13T04:39:04;11.30;;;9.05;;
19225;SDS011;9747;48.536;12.522;2022-12-13T04:41:35;11.00;;;9.00;;
19225;SDS011;9747;48.536;12.522;2022-12-13T04:44:04;11.02;;;8.55;;
19225;SDS011;9747;48.536;12.522;2022-12-13T04:46:34;10.63;;;8.40;;
19225;SDS011;9747;48.536;12.522;2022-12-13T04:49:01;10.15;;;8.23;;
19225;SDS011;9747;48.536;12.522;2022-12-13T04:51:29;11.60;;;8.68;;
19225;SDS011;9747;48.536;12.522;2022-12-13T04:53:56;11.40;;;8.73;;
19225;SDS011;9747;48.536;12.522;2022-12-13T04:56:24;12.30;;;9.18;;
19225;SDS011;9747;48.536;12.522;2022-12-13T04:58:53;9.68;;;8.18;;
19225;SDS011;9747;48.536;12.522;2022-12-13T05:01:20;12.27;;;8.82;;
19225;SDS011;9747;48.536;12.522;2022-12-13T05:03:47;11.50;;;9.02;;
19225;SDS011;9747;48.536;12.522;2022-12-13T05:06:15;11.82;;;8.65;;
19225;SDS011;9747;48.536;12.522;2022-12-13T05:08:42;12.55;;;8.88;;
19225;SDS011;9747;48.536;12.522;2022-12-13T05:11:10;11.80;;;9.18;;
19225;SDS011;9747;48.536;12.522;2022-12-13T05:13:38;13.73;;;9.43;;
19225;SDS011;9747;48.536;12.522;2022-12-13T05:16:07;14.82;;;9.50;;
19225;SDS011;9747;48.536;12.522;2022-12-13T05:18:35;12.43;;;8.90;;
19225;SDS011;9747;48.536;12.522;2022-12-13T05:21:03;15.18;;;9.10;;
19225;SDS011;9747;48.536;12.522;2022-12-13T05:23:33;18.30;;;9.10;;
19225;SDS011;9747;48.536;12.522;2022-12-13T05:26:00;13.38;;;9.05;;
19225;SDS011;9747;48.536;12.522;2022-12-13T05:28:29;16.15;;;9.13;;
19225;SDS011;9747;48.536;12.522;2022-12-13T05:30:57;13.82;;;9.13;;
19225;SDS011;9747;48.536;12.522;2022-12-13T05:33:34;15.40;;;9.43;;
19225;SDS011;9747;48.536;12.522;2022-12-13T05:36:02;11.80;;;8.88;;
19225;SDS011;9747;48.536;12.522;2022-12-13T05:38:30;14.52;;;9.07;;
19225;SDS011;9747;48.536;12.522;2022-12-13T05:40:58;13.68;;;8.88;;
19225;SDS011;9747;48.536;12.522;2022-12-13T05:43:26;12.30;;;8.82;;
19225;SDS011;9747;48.536;12.522;2022-12-13T05:45:53;13.77;;;9.35;;
19225;SDS011;9747;48.536;12.522;2022-12-13T05:48:22;12.75;;;9.05;;
19225;SDS011;9747;48.536;12.522;2022-12-13T05:50:50;14.07;;;10.00;;
19225;SDS011;9747;48.536;12.522;2022-12-13T05:53:17;11.70;;;9.00;;
19225;SDS011;9747;48.536;12.522;2022-12-13T05:55:45;15.00;;;9.65;;
19225;SDS011;9747;48.536;12.522;2022-12-13T05:58:12;12.48;;;8.95;;
19225;SDS011;9747;48.536;12.522;2022-12-13T06:00:40;12.80;;;9.57;;
19225;SDS011;9747;48.536;12.522;2022-12-13T06:03:08;13.02;;;9.15;;
19225;SDS011;9747;48.536;12.522;2022-12-13T06:05:37;14.18;;;8.90;;
19225;SDS011;9747;48.536;12.522;2022-12-13T06:08:06;12.63;;;8.50;;
19225;SDS011;9747;48.536;12.522;2022-12-13T06:10:34;13.85;;;7.68;;
19225;SDS011;9747;48.536;12.522;2022-12-13T06:13:01;10.93;;;8.00;;
19225;SDS011;9747;48.536;12.522;2022-12-13T06:15:29;10.77;;;8.15;;
19225;SDS011;9747;48.536;12.522;2022-12-13T06:17:58;13.13;;;7.60;;
19225;SDS011;9747;48.536;12.522;2022-12-13T06:20:26;11.35;;;7.63;;
19225;SDS011;9747;48.536;12.522;2022-12-13T06:22:55;11.00;;;7.20;;
19225;SDS011;9747;48.536;12.522;2022-12-13T06:25:23;10.35;;;7.45;;
19225;SDS011;9747;48.536;12.522;2022-12-13T06:27:51;9.95;;;7.55;;
19225;SDS011;9747;48.536;12.522;2022-12-13T06:30:19;11.88;;;7.75;;
19225;SDS011;9747;48.536;12.522;2022-12-13T06:32:48;10.35;;;6.95;;
19225;SDS011;9747;48.536;12.522;2022-12-13T06:35:15;10.38;;;7.15;;
19225;SDS011;9747;48.536;12.522;2022-12-13T06:37:43;9.27;;;6.60;;
19225;SDS011;9747;48.536;12.522;2022-12-13T06:40:12;11.05;;;6.88;;
19225;SDS011;9747;48.536;12.522;2022-12-13T06:42:39;9.45;;;6.72;;
19225;SDS011;9747;48.536;12.522;2022-12-13T06:45:07;9.05;;;6.53;;
19225;SDS011;9747;48.536;12.522;2022-12-13T06:47:35;10.98;;;7.30;;
19225;SDS011;9747;48.536;12.522;2022-12-13T06:50:03;8.57;;;6.63;;
19225;SDS011;9747;48.536;12.522;2022-12-13T06:52:31;8.40;;;6.53;;
19225;SDS011;9747;48.536;12.522;2022-12-13T06:54:59;9.32;;;7.03;;
19225;SDS011;9747;48.536;12.522;2022-12-13T06:57:28;8.45;;;7.18;;
19225;SDS011;9747;48.536;12.522;2022-12-13T06:59:58;8.45;;;6.25;;
19225;SDS011;9747;48.536;12.522;2022-12-13T07:02:27;9.52;;;6.75;;
19225;SDS011;9747;48.536;12.522;2022-12-13T07:04:55;9.65;;;6.47;;
19225;SDS011;9747;48.536;12.522;2022-12-13T07:07:23;6.90;;;6.20;;
19225;SDS011;9747;48.536;12.522;2022-12-13T07:09:51;8.65;;;6.57;;
19225;SDS011;9747;48.536;12.522;2022-12-13T07:12:18;9.02;;;6.78;;
19225;SDS011;9747;48.536;12.522;2022-12-13T07:14:47;8.20;;;6.28;;
19225;SDS011;9747;48.536;12.522;2022-12-13T07:17:15;9.02;;;6.55;;
19225;SDS011;9747;48.536;12.522;2022-12-13T07:19:43;7.75;;;6.43;;
19225;SDS011;9747;48.536;12.522;2022-12-13T07:22:10;9.52;;;6.25;;
19225;SDS011;9747;48.536;12.522;2022-12-13T07:24:38;10.18;;;6.53;;
19225;SDS011;9747;48.536;12.522;2022-12-13T07:27:05;9.23;;;6.40;;
19225;SDS011;9747;48.536;12.522;2022-12-13T07:29:32;9.80;;;6.22;;
19225;SDS011;9747;48.536;12.522;2022-12-13T07:32:01;9.07;;;6.50;;
19225;SDS011;9747;48.536;12.522;2022-12-13T07:34:29;6.95;;;6.25;;
19225;SDS011;9747;48.536;12.522;2022-12-13T07:36:56;6.63;;;5.95;;
19225;SDS011;9747;48.536;12.522;2022-12-13T07:39:24;7.50;;;6.35;;
19225;SDS011;9747;48.536;12.522;2022-12-13T07:41:52;10.30;;;6.75;;
19225;SDS011;9747;48.536;12.522;2022-12-13T07:44:21;7.78;;;6.05;;
19225;SDS011;9747;48.536;12.522;2022-12-13T07:46:48;7.28;;;6.13;;
19225;SDS011;9747;48.536;12.522;2022-12-13T07:49:17;7.13;;;5.88;;
19225;SDS011;9747;48.536;12.522;2022-12-13T07:51:45;7.97;;;6.07;;
19225;SDS011;9747;48.536;12.522;2022-12-13T07:54:13;8.30;;;6.18;;
19225;SDS011;9747;48.536;12.522;2022-12-13T07:56:42;7.45;;;5.88;;
19225;SDS011;9747;48.536;12.522;2022-12-13T07:59:09;6.85;;;6.07;;
19225;SDS011;9747;48.536;12.522;2022-12-13T08:01:37;6.85;;;5.90;;
19225;SDS011;9747;48.536;12.522;2022-12-13T08:04:04;7.00;;;5.93;;
19225;SDS011;9747;48.536;12.522;2022-12-13T08:06:35;7.65;;;5.97;;
19225;SDS011;9747;48.536;12.522;2022-12-13T08:09:03;8.45;;;6.10;;
19225;SDS011;9747;48.536;12.522;2022-12-13T08:11:31;8.60;;;6.55;;
19225;SDS011;9747;48.536;12.522;2022-12-13T08:13:59;6.78;;;5.72;;
19225;SDS011;9747;48.536;12.522;2022-12-13T08:16:27;6.88;;;5.40;;
19225;SDS011;9747;48.536;12.522;2022-12-13T08:18:55;8.02;;;5.85;;
19225;SDS011;9747;48.536;12.522;2022-12-13T08:21:22;6.80;;;5.50;;
19225;SDS011;9747;48.536;12.522;2022-12-13T08:23:51;7.22;;;5.80;;
19225;SDS011;9747;48.536;12.522;2022-12-13T08:26:19;6.88;;;5.57;;
19225;SDS011;9747;48.536;12.522;2022-12-13T08:28:47;6.78;;;6.07;;
19225;SDS011;9747;48.536;12.522;2022-12-13T08:31:15;6.85;;;5.32;;
19225;SDS011;9747;48.536;12.522;2022-12-13T08:33:43;6.80;;;5.47;;
19225;SDS011;9747;48.536;12.522;2022-12-13T08:36:12;5.78;;;5.13;;
19225;SDS011;9747;48.536;12.522;2022-12-13T08:38:42;7.00;;;5.80;;
19225;SDS011;9747;48.536;12.522;2022-12-13T08:41:11;6.93;;;5.38;;
19225;SDS011;9747;48.536;12.522;2022-12-13T08:43:39;6.30;;;5.40;;
19225;SDS011;9747;48.536;12.522;2022-12-13T08:46:06;6.47;;;5.55;;
19225;SDS011;9747;48.536;12.522;2022-12-13T08:48:34;5.47;;;4.97;;
19225;SDS011;9747;48.536;12.522;2022-12-13T08:51:01;7.05;;;6.28;;
19225;SDS011;9747;48.536;12.522;2022-12-13T08:53:31;5.60;;;4.72;;
19225;SDS011;9747;48.536;12.522;2022-12-13T08:55:59;6.35;;;5.35;;
19225;SDS011;9747;48.536;12.522;2022-12-13T08:58:28;5.97;;;5.38;;
19225;SDS011;9747;48.536;12.522;2022-12-13T09:00:57;5.50;;;4.88;;
19225;SDS011;9747;48.536;12.522;2022-12-13T09:03:24;5.70;;;5.18;;
19225;SDS011;9747;48.536;12.522;2022-12-13T09:05:52;6.35;;;5.13;;
19225;SDS011;9747;48.536;12.522;2022-12-13T09:08:20;5.82;;;5.15;;
19225;SDS011;9747;48.536;12.522;2022-12-13T09:10:54;5.97;;;5.38;;
19225;SDS011;9747;48.536;12.522;2022-12-13T09:13:22;5.40;;;4.90;;
19225;SDS011;9747;48.536;12.522;2022-12-13T09:15:51;6.40;;;5.18;;
19225;SDS011;9747;48.536;12.522;2022-12-13T09:18:19;6.43;;;5.45;;
19225;SDS011;9747;48.536;12.522;2022-12-13T09:20:46;5.25;;;4.68;;
19225;SDS011;9747;48.536;12.522;2022-12-13T09:23:14;5.40;;;4.90;;
19225;SDS011;9747;48.536;12.522;2022-12-13T09:25:42;5.22;;;4.70;;
19225;SDS011;9747;48.536;12.522;2022-12-13T09:28:09;5.90;;;5.13;;
19225;SDS011;9747;48.536;12.522;2022-12-13T09:30:37;5.45;;;4.72;;
19225;SDS011;9747;48.536;12.522;2022-12-13T09:33:06;5.25;;;4.75;;
19225;SDS011;9747;48.536;12.522;2022-12-13T09:35:36;5.40;;;4.55;;
19225;SDS011;9747;48.536;12.522;2022-12-13T09:38:03;5.18;;;4.68;;
19225;SDS011;9747;48.536;12.522;2022-12-13T09:40:31;5.85;;;5.10;;
19225;SDS011;9747;48.536;12.522;2022-12-13T09:42:59;5.45;;;4.95;;
19225;SDS011;9747;48.536;12.522;2022-12-13T09:45:28;6.20;;;4.50;;
19225;SDS011;9747;48.536;12.522;2022-12-13T09:47:55;5.22;;;4.72;;
19225;SDS011;9747;48.536;12.522;2022-12-13T09:50:26;5.43;;;4.65;;
19225;SDS011;9747;48.536;12.522;2022-12-13T09:52:56;5.53;;;4.70;;
19225;SDS011;9747;48.536;12.522;2022-12-13T09:55:25;5.30;;;4.80;;
19225;SDS011;9747;48.536;12.522;2022-12-13T09:57:57;5.07;;;4.60;;
19225;SDS011;9747;48.536;12.522;2022-12-13T10:00:27;5.45;;;4.88;;
19225;SDS011;9747;48.536;12.522;2022-12-13T10:03:01;5.82;;;4.72;;
19225;SDS011;9747;48.536;12.522;2022-12-13T10:05:30;4.80;;;4.32;;
19225;SDS011;9747;48.536;12.522;2022-12-13T10:08:04;4.88;;;4.38;;
19225;SDS011;9747;48.536;12.522;2022-12-13T10:10:33;5.03;;;4.53;;
19225;SDS011;9747;48.536;12.522;2022-12-13T10:13:03;5.03;;;4.53;;
19225;SDS011;9747;48.536;12.522;2022-12-13T10:15:37;6.20;;;4.70;;
19225;SDS011;9747;48.536;12.522;2022-12-13T10:18:07;5.00;;;4.50;;
19225;SDS011;9747;48.536;12.522;2022-12-13T10:20:39;4.93;;;4.43;;
19225;SDS011;9747;48.536;12.522;2022-12-13T10:23:07;5.88;;;4.47;;
19225;SDS011;9747;48.536;12.522;2022-12-13T10:25:42;4.85;;;4.25;;
19225;SDS011;9747;48.536;12.522;2022-12-13T10:28:14;4.72;;;4.30;;
19225;SDS011;9747;48.536;12.522;2022-12-13T10:30:43;5.00;;;4.30;;
19225;SDS011;9747;48.536;12.522;2022-12-13T10:33:21;4.97;;;4.47;;
19225;SDS011;9747;48.536;12.522;2022-12-13T10:36:02;4.80;;;4.40;;
19225;SDS011;9747;48.536;12.522;2022-12-13T10:38:41;4.50;;;3.97;;
19225;SDS011;9747;48.536;12.522;2022-12-13T10:41:24;4.82;;;4.10;;
19225;SDS011;9747;48.536;12.522;2022-12-13T10:46:51;3.90;;;3.60;;
19225;SDS011;9747;48.536;12.522;2022-12-13T10:49:45;4.32;;;3.92;;
19225;SDS011;9747;48.536;12.522;2022-12-13T10:52:22;4.53;;;4.10;;
19225;SDS011;9747;48.536;12.522;2022-12-13T10:54:52;4.22;;;3.83;;
19225;SDS011;9747;48.536;12.522;2022-12-13T10:57:21;4.88;;;4.40;;
19225;SDS011;9747;48.536;12.522;2022-12-13T10:59:49;4.22;;;3.83;;
19225;SDS011;9747;48.536;12.522;2022-12-13T11:02:27;4.13;;;3.72;;
19225;SDS011;9747;48.536;12.522;2022-12-13T11:04:58;4.22;;;3.80;;
19225;SDS011;9747;48.536;12.522;2022-12-13T11:07:44;4.05;;;3.65;;
19225;SDS011;9747;48.536;12.522;2022-12-13T11:10:15;4.47;;;3.90;;
19225;SDS011;9747;48.536;12.522;2022-12-13T11:12:49;4.03;;;3.63;;
19225;SDS011;9747;48.536;12.522;2022-12-13T11:15:17;4.13;;;3.60;;
19225;SDS011;9747;48.536;12.522;2022-12-13T11:17:47;3.40;;;3.10;;
19225;SDS011;9747;48.536;12.522;2022-12-13T11:20:17;4.30;;;3.80;;
19225;SDS011;9747;48.536;12.522;2022-12-13T11:22:49;3.92;;;3.47;;
19225;SDS011;9747;48.536;12.522;2022-12-13T11:25:27;4.13;;;3.70;;
19225;SDS011;9747;48.536;12.522;2022-12-13T11:28:02;5.40;;;3.80;;
19225;SDS011;9747;48.536;12.522;2022-12-13T11:30:49;4.32;;;3.70;;
19225;SDS011;9747;48.536;12.522;2022-12-13T11:33:24;3.90;;;3.58;;
19225;SDS011;9747;48.536;12.522;2022-12-13T11:35:59;3.95;;;3.55;;
19225;SDS011;9747;48.536;12.522;2022-12-13T11:38:37;3.58;;;3.22;;
19225;SDS011;9747;48.536;12.522;2022-12-13T11:41:21;4.00;;;3.60;;
19225;SDS011;9747;48.536;12.522;2022-12-13T11:43:53;3.58;;;3.25;;
19225;SDS011;9747;48.536;12.522;2022-12-13T11:46:25;3.60;;;3.30;;
19225;SDS011;9747;48.536;12.522;2022-12-13T11:49:02;3.53;;;3.22;;
19225;SDS011;9747;48.536;12.522;2022-12-13T11:51:36;3.72;;;3.38;;
19225;SDS011;9747;48.536;12.522;2022-12-13T11:54:12;3.63;;;3.33;;
19225;SDS011;9747;48.536;12.522;2022-12-13T11:56:44;3.47;;;3.17;;
19225;SDS011;9747;48.536;12.522;2022-12-13T11:59:14;3.55;;;3.22;;
19225;SDS011;9747;48.536;12.522;2022-12-13T12:01:51;3.65;;;3.25;;
19225;SDS011;9747;48.536;12.522;2022-12-13T12:04:22;3.28;;;3.00;;
19225;SDS011;9747;48.536;12.522;2022-12-13T12:06:55;3.30;;;3.00;;
19225;SDS011;9747;48.536;12.522;2022-12-13T12:09:29;3.53;;;3.22;;
19225;SDS011;9747;48.536;12.522;2022-12-13T12:12:00;3.55;;;3.25;;
19225;SDS011;9747;48.536;12.522;2022-12-13T12:14:33;3.75;;;3.38;;
19225;SDS011;9747;48.536;12.522;2022-12-13T12:17:05;3.55;;;3.25;;
19225;SDS011;9747;48.536;12.522;2022-12-13T12:19:36;3.25;;;2.95;;
19225;SDS011;9747;48.536;12.522;2022-12-13T12:22:10;3.28;;;3.00;;
19225;SDS011;9747;48.536;12.522;2022-12-13T12:24:52;3.30;;;3.05;;
19225;SDS011;9747;48.536;12.522;2022-12-13T12:27:31;3.08;;;2.88;;
19225;SDS011;9747;48.536;12.522;2022-12-13T12:30:08;3.30;;;3.00;;
19225;SDS011;9747;48.536;12.522;2022-12-13T12:32:42;3.40;;;3.10;;
19225;SDS011;9747;48.536;12.522;2022-12-13T12:35:28;3.03;;;2.75;;
19225;SDS011;9747;48.536;12.522;2022-12-13T12:38:22;3.30;;;3.00;;
19225;SDS011;9747;48.536;12.522;2022-12-13T12:41:10;3.08;;;2.80;;
19225;SDS011;9747;48.536;12.522;2022-12-13T12:43:50;4.95;;;2.83;;
19225;SDS011;9747;48.536;12.522;2022-12-13T12:46:35;3.33;;;3.03;;
19225;SDS011;9747;48.536;12.522;2022-12-13T12:49:19;3.55;;;3.25;;
19225;SDS011;9747;48.536;12.522;2022-12-13T12:52:13;3.20;;;2.95;;
19225;SDS011;9747;48.536;12.522;2022-12-13T12:54:49;3.55;;;3.10;;
19225;SDS011;9747;48.536;12.522;2022-12-13T12:57:30;2.80;;;2.60;;
19225;SDS011;9747;48.536;12.522;2022-12-13T13:00:08;2.80;;;2.60;;
19225;SDS011;9747;48.536;12.522;2022-12-13T13:02:40;2.90;;;2.70;;
19225;SDS011;9747;48.536;12.522;2022-12-13T13:05:14;3.15;;;2.85;;
19225;SDS011;9747;48.536;12.522;2022-12-13T13:07:47;2.53;;;2.33;;
19225;SDS011;9747;48.536;12.522;2022-12-13T13:10:18;2.90;;;2.70;;
19225;SDS011;9747;48.536;12.522;2022-12-13T13:12:47;2.92;;;2.65;;
19225;SDS011;9747;48.536;12.522;2022-12-13T13:21:24;2.85;;;2.65;;
19225;SDS011;9747;48.536;12.522;2022-12-13T13:24:12;2.70;;;2.50;;
19225;SDS011;9747;48.536;12.522;2022-12-13T13:26:46;2.35;;;2.15;;
19225;SDS011;9747;48.536;12.522;2022-12-13T13:32:21;2.83;;;2.63;;
19225;SDS011;9747;48.536;12.522;2022-12-13T13:34:52;2.70;;;2.50;;
19225;SDS011;9747;48.536;12.522;2022-12-13T13:37:26;2.53;;;2.33;;
19225;SDS011;9747;48.536;12.522;2022-12-13T13:40:27;2.85;;;2.65;;
19225;SDS011;9747;48.536;12.522;2022-12-13T13:43:04;2.58;;;2.38;;
19225;SDS011;9747;48.536;12.522;2022-12-13T13:45:52;2.58;;;2.38;;
19225;SDS011;9747;48.536;12.522;2022-12-13T13:48:26;3.33;;;2.30;;
19225;SDS011;9747;48.536;12.522;2022-12-13T13:51:21;2.60;;;2.40;;
19225;SDS011;9747;48.536;12.522;2022-12-13T13:54:29;2.20;;;2.10;;
19225;SDS011;9747;48.536;12.522;2022-12-13T13:57:31;2.53;;;2.20;;
19225;SDS011;9747;48.536;12.522;2022-12-13T14:01:01;2.20;;;2.10;;
19225;SDS011;9747;48.536;12.522;2022-12-13T14:04:02;2.40;;;2.20;;
19225;SDS011;9747;48.536;12.522;2022-12-13T14:10:12;2.50;;;2.30;;
19225;SDS011;9747;48.536;12.522;2022-12-13T14:16:34;2.10;;;2.00;;
19225;SDS011;9747;48.536;12.522;2022-12-13T14:19:41;11.82;;;5.07;;
19225;SDS011;9747;48.536;12.522;2022-12-13T14:22:37;9.82;;;3.38;;
19225;SDS011;9747;48.536;12.522;2022-12-13T14:25:25;6.05;;;3.38;;
19225;SDS011;9747;48.536;12.522;2022-12-13T14:28:10;6.70;;;3.30;;
19225;SDS011;9747;48.536;12.522;2022-12-13T14:30:42;4.55;;;2.92;;
19225;SDS011;9747;48.536;12.522;2022-12-13T14:33:14;6.35;;;2.97;;
19225;SDS011;9747;48.536;12.522;2022-12-13T14:35:52;6.70;;;3.05;;
19225;SDS011;9747;48.536;12.522;2022-12-13T14:38:23;9.20;;;2.80;;
19225;SDS011;9747;48.536;12.522;2022-12-13T14:40:54;3.75;;;2.70;;
19225;SDS011;9747;48.536;12.522;2022-12-13T14:43:24;3.22;;;2.60;;
19225;SDS011;9747;48.536;12.522;2022-12-13T14:45:54;4.90;;;2.55;;
19225;SDS011;9747;48.536;12.522;2022-12-13T14:48:24;3.65;;;2.60;;
19225;SDS011;9747;48.536;12.522;2022-12-13T14:50:52;4.00;;;2.70;;
19225;SDS011;9747;48.536;12.522;2022-12-13T14:53:21;5.40;;;2.60;;
19225;SDS011;9747;48.536;12.522;2022-12-13T14:56:02;4.63;;;2.50;;
19225;SDS011;9747;48.536;12.522;2022-12-13T14:58:33;5.95;;;2.33;;
19225;SDS011;9747;48.536;12.522;2022-12-13T15:01:02;5.00;;;2.85;;
19225;SDS011;9747;48.536;12.522;2022-12-13T15:03:31;4.28;;;2.40;;
19225;SDS011;9747;48.536;12.522;2022-12-13T15:06:00;3.60;;;2.33;;
19225;SDS011;9747;48.536;12.522;2022-12-13T15:08:29;2.65;;;2.40;;
19225;SDS011;9747;48.536;12.522;2022-12-13T15:10:58;2.92;;;2.70;;
19225;SDS011;9747;48.536;12.522;2022-12-13T15:13:27;3.58;;;2.97;;
19225;SDS011;9747;48.536;12.522;2022-12-13T15:15:59;2.90;;;2.70;;
19225;SDS011;9747;48.536;12.522;2022-12-13T15:18:33;3.30;;;2.55;;
19225;SDS011;9747;48.536;12.522;2022-12-13T15:21:17;3.65;;;2.97;;
19225;SDS011;9747;48.536;12.522;2022-12-13T15:23:51;3.85;;;2.75;;
19225;SDS011;9747;48.536;12.522;2022-12-13T15:26:25;3.50;;;2.90;;
19225;SDS011;9747;48.536;12.522;2022-12-13T15:28:55;3.25;;;2.80;;
19225;SDS011;9747;48.536;12.522;2022-12-13T15:31:24;4.80;;;2.60;;
19225;SDS011;9747;48.536;12.522;2022-12-13T15:33:53;4.53;;;2.75;;
19225;SDS011;9747;48.536;12.522;2022-12-13T15:36:21;3.97;;;2.97;;